sensor_id;sensor_type;location;lat;lon;timestamp;temperature;humidity
22167;DHT22;11249;52.468;13.776;2022-09-27T00:00:06;12.00;99.90
22167;DHT22;11249;52.468;13.776;2022-09-27T00:02:33;12.00;99.90
22167;DHT22;11249;52.468;13.776;2022-09-27T00:05:00;11.90;99.90
22167;DHT22;11249;52.468;13.776;2022-09-27T00:07:27;11.90;99.90
22167;DHT22;11249;52.468;13.776;2022-09-27T00:09:53;11.90;99.90
22167;DHT22;11249;52.468;13.776;2022-09-27T00:12:20;11.90;99.90
22167;DHT22;11249;52.468;13.776;2022-09-27T00:14:47;11.90;99.90
22167;DHT22;11249;52.468;13.776;2022-09-27T00:17:13;11.80;99.90
22167;DHT22;11249;52.468;13.776;2022-09-27T00:19:40;11.80;99.90
22167;DHT22;11249;52.468;13.776;2022-09-27T00:22:06;11.90;99.90
22167;DHT22;11249;52.468;13.776;2022-09-27T00:24:33;11.80;99.90
22167;DHT22;11249;52.468;13.776;2022-09-27T00:27:00;11.80;99.90
22167;DHT22;11249;52.468;13.776;2022-09-27T00:29:27;11.70;99.90
22167;DHT22;11249;52.468;13.776;2022-09-27T00:31:53;11.80;99.90
22167;DHT22;11249;52.468;13.776;2022-09-27T00:34:23;11.80;99.90
22167;DHT22;11249;52.468;13.776;2022-09-27T00:36:50;11.80;99.90
22167;DHT22;11249;52.468;13.776;2022-09-27T00:39:17;11.80;99.90
22167;DHT22;11249;52.468;13.776;2022-09-27T00:41:44;11.80;99.90
22167;DHT22;11249;52.468;13.776;2022-09-27T00:47:35;11.80;99.90
22167;DHT22;11249;52.468;13.776;2022-09-27T00:50:09;11.80;99.90
22167;DHT22;11249;52.468;13.776;2022-09-27T00:52:39;11.80;99.90
22167;DHT22;11249;52.468;13.776;2022-09-27T00:55:14;11.70;99.90
22167;DHT22;11249;52.468;13.776;2022-09-27T00:57:44;11.80;99.90
22167;DHT22;11249;52.468;13.776;2022-09-27T01:00:12;11.80;99.90
22167;DHT22;11249;52.468;13.776;2022-09-27T01:02:44;11.80;99.90
22167;DHT22;11249;52.468;13.776;2022-09-27T01:05:15;11.70;99.90
22167;DHT22;11249;52.468;13.776;2022-09-27T01:07:42;11.70;99.90
22167;DHT22;11249;52.468;13.776;2022-09-27T01:10:09;11.70;99.90
22167;DHT22;11249;52.468;13.776;2022-09-27T01:15:52;11.70;99.90
22167;DHT22;11249;52.468;13.776;2022-09-27T01:18:38;11.70;99.90
22167;DHT22;11249;52.468;13.776;2022-09-27T01:21:36;11.70;99.90
22167;DHT22;11249;52.468;13.776;2022-09-27T01:24:19;11.70;99.90
22167;DHT22;11249;52.468;13.776;2022-09-27T01:32:54;11.70;99.90
22167;DHT22;11249;52.468;13.776;2022-09-27T01:35:47;11.70;99.90
22167;DHT22;11249;52.468;13.776;2022-09-27T01:39:10;11.70;99.90
22167;DHT22;11249;52.468;13.776;2022-09-27T01:44:57;11.70;99.90
22167;DHT22;11249;52.468;13.776;2022-09-27T01:47:33;11.70;99.90
22167;DHT22;11249;52.468;13.776;2022-09-27T01:50:13;11.70;99.90
22167;DHT22;11249;52.468;13.776;2022-09-27T01:52:49;11.70;99.90
22167;DHT22;11249;52.468;13.776;2022-09-27T01:55:20;11.80;99.90
22167;DHT22;11249;52.468;13.776;2022-09-27T01:57:57;11.70;99.90
22167;DHT22;11249;52.468;13.776;2022-09-27T02:00:26;11.80;99.90
22167;DHT22;11249;52.468;13.776;2022-09-27T02:03:00;11.90;99.90
22167;DHT22;11249;52.468;13.776;2022-09-27T02:05:41;11.90;99.90
22167;DHT22;11249;52.468;13.776;2022-09-27T02:08:17;11.90;99.90
22167;DHT22;11249;52.468;13.776;2022-09-27T02:10:47;11.90;99.90
22167;DHT22;11249;52.468;13.776;2022-09-27T02:13:16;11.90;99.90
22167;DHT22;11249;52.468;13.776;2022-09-27T02:16:05;11.90;99.90
22167;DHT22;11249;52.468;13.776;2022-09-27T02:18:54;11.90;99.90
22167;DHT22;11249;52.468;13.776;2022-09-27T02:21:26;11.90;99.90
22167;DHT22;11249;52.468;13.776;2022-09-27T02:23:57;11.90;99.90
22167;DHT22;11249;52.468;13.776;2022-09-27T02:26:34;11.90;99.90
22167;DHT22;11249;52.468;13.776;2022-09-27T02:29:13;11.90;99.90
22167;DHT22;11249;52.468;13.776;2022-09-27T02:31:41;11.90;99.90
22167;DHT22;11249;52.468;13.776;2022-09-27T02:34:19;11.90;99.90
22167;DHT22;11249;52.468;13.776;2022-09-27T02:36:48;11.90;99.90
22167;DHT22;11249;52.468;13.776;2022-09-27T02:39:17;12.00;99.90
22167;DHT22;11249;52.468;13.776;2022-09-27T02:41:44;12.00;99.90
22167;DHT22;11249;52.468;13.776;2022-09-27T02:44:12;12.00;99.90
22167;DHT22;11249;52.468;13.776;2022-09-27T02:49:29;12.00;99.90
22167;DHT22;11249;52.468;13.776;2022-09-27T02:52:12;12.00;99.90
22167;DHT22;11249;52.468;13.776;2022-09-27T03:00:16;12.00;99.90
22167;DHT22;11249;52.468;13.776;2022-09-27T03:05:35;12.00;99.90
22167;DHT22;11249;52.468;13.776;2022-09-27T03:08:04;12.00;99.90
22167;DHT22;11249;52.468;13.776;2022-09-27T03:10:30;12.00;99.90
22167;DHT22;11249;52.468;13.776;2022-09-27T03:12:57;12.00;99.90
22167;DHT22;11249;52.468;13.776;2022-09-27T03:15:24;12.00;99.90
22167;DHT22;11249;52.468;13.776;2022-09-27T03:17:50;12.10;99.90
22167;DHT22;11249;52.468;13.776;2022-09-27T03:20:17;12.10;99.90
22167;DHT22;11249;52.468;13.776;2022-09-27T03:22:44;12.10;99.90
22167;DHT22;11249;52.468;13.776;2022-09-27T03:25:10;12.10;99.90
22167;DHT22;11249;52.468;13.776;2022-09-27T03:27:37;12.10;99.90
22167;DHT22;11249;52.468;13.776;2022-09-27T03:30:04;12.00;99.90
22167;DHT22;11249;52.468;13.776;2022-09-27T03:32:32;12.00;99.90
22167;DHT22;11249;52.468;13.776;2022-09-27T03:34:59;12.00;99.90
22167;DHT22;11249;52.468;13.776;2022-09-27T03:37:26;12.00;99.90
22167;DHT22;11249;52.468;13.776;2022-09-27T03:39:54;12.00;99.90
22167;DHT22;11249;52.468;13.776;2022-09-27T03:42:21;12.00;99.90
22167;DHT22;11249;52.468;13.776;2022-09-27T03:44:48;12.00;99.90
22167;DHT22;11249;52.468;13.776;2022-09-27T03:47:16;12.10;99.90
22167;DHT22;11249;52.468;13.776;2022-09-27T03:49:43;12.10;99.90
22167;DHT22;11249;52.468;13.776;2022-09-27T03:52:10;12.00;99.90
22167;DHT22;11249;52.468;13.776;2022-09-27T03:54:36;12.10;99.90
22167;DHT22;11249;52.468;13.776;2022-09-27T03:57:03;12.10;99.90
22167;DHT22;11249;52.468;13.776;2022-09-27T03:59:30;12.10;99.90
22167;DHT22;11249;52.468;13.776;2022-09-27T04:01:57;12.00;99.90
22167;DHT22;11249;52.468;13.776;2022-09-27T04:04:24;12.00;99.90
22167;DHT22;11249;52.468;13.776;2022-09-27T04:06:50;12.00;99.90
22167;DHT22;11249;52.468;13.776;2022-09-27T04:09:17;12.00;99.90
22167;DHT22;11249;52.468;13.776;2022-09-27T04:11:44;11.90;99.90
22167;DHT22;11249;52.468;13.776;2022-09-27T04:14:10;11.90;99.90
22167;DHT22;11249;52.468;13.776;2022-09-27T04:16:38;11.90;99.90
22167;DHT22;11249;52.468;13.776;2022-09-27T04:19:06;11.90;99.90
22167;DHT22;11249;52.468;13.776;2022-09-27T04:21:34;11.90;99.90
22167;DHT22;11249;52.468;13.776;2022-09-27T04:24:01;11.90;99.90
22167;DHT22;11249;52.468;13.776;2022-09-27T04:26:27;11.90;99.90
22167;DHT22;11249;52.468;13.776;2022-09-27T04:28:54;11.80;99.90
22167;DHT22;11249;52.468;13.776;2022-09-27T04:31:21;11.80;99.90
22167;DHT22;11249;52.468;13.776;2022-09-27T04:33:48;11.80;99.90
22167;DHT22;11249;52.468;13.776;2022-09-27T04:36:18;11.70;99.90
22167;DHT22;11249;52.468;13.776;2022-09-27T04:38:57;11.70;99.90
22167;DHT22;11249;52.468;13.776;2022-09-27T04:41:24;11.80;99.90
22167;DHT22;11249;52.468;13.776;2022-09-27T04:43:52;11.70;99.90
22167;DHT22;11249;52.468;13.776;2022-09-27T04:46:25;11.70;99.90
22167;DHT22;11249;52.468;13.776;2022-09-27T04:48:52;11.70;99.90
22167;DHT22;11249;52.468;13.776;2022-09-27T04:51:18;11.70;99.90
22167;DHT22;11249;52.468;13.776;2022-09-27T04:53:46;11.70;99.90
22167;DHT22;11249;52.468;13.776;2022-09-27T04:56:13;11.70;99.90
22167;DHT22;11249;52.468;13.776;2022-09-27T04:58:41;11.70;99.90
22167;DHT22;11249;52.468;13.776;2022-09-27T05:01:08;11.60;99.90
22167;DHT22;11249;52.468;13.776;2022-09-27T05:03:35;11.70;99.90
22167;DHT22;11249;52.468;13.776;2022-09-27T05:06:02;11.70;99.90
22167;DHT22;11249;52.468;13.776;2022-09-27T05:08:28;11.70;99.90
22167;DHT22;11249;52.468;13.776;2022-09-27T05:10:55;11.70;99.90
22167;DHT22;11249;52.468;13.776;2022-09-27T05:13:22;11.70;99.90
22167;DHT22;11249;52.468;13.776;2022-09-27T05:15:48;11.70;99.90
22167;DHT22;11249;52.468;13.776;2022-09-27T05:18:15;11.70;99.90
22167;DHT22;11249;52.468;13.776;2022-09-27T05:20:43;11.70;99.90
22167;DHT22;11249;52.468;13.776;2022-09-27T05:23:10;11.70;99.90
22167;DHT22;11249;52.468;13.776;2022-09-27T05:25:37;11.70;99.90
22167;DHT22;11249;52.468;13.776;2022-09-27T05:28:04;11.80;99.90
22167;DHT22;11249;52.468;13.776;2022-09-27T05:30:31;11.70;99.90
22167;DHT22;11249;52.468;13.776;2022-09-27T05:32:58;11.70;99.90
22167;DHT22;11249;52.468;13.776;2022-09-27T05:35:25;11.80;99.90
22167;DHT22;11249;52.468;13.776;2022-09-27T05:37:56;11.80;99.90
22167;DHT22;11249;52.468;13.776;2022-09-27T05:40:23;11.80;99.90
22167;DHT22;11249;52.468;13.776;2022-09-27T05:43:07;11.80;99.90
22167;DHT22;11249;52.468;13.776;2022-09-27T05:45:34;11.80;99.90
22167;DHT22;11249;52.468;13.776;2022-09-27T05:48:01;11.80;99.90
22167;DHT22;11249;52.468;13.776;2022-09-27T05:50:28;11.80;99.90
22167;DHT22;11249;52.468;13.776;2022-09-27T05:52:55;11.90;99.90
22167;DHT22;11249;52.468;13.776;2022-09-27T05:55:22;11.90;99.90
22167;DHT22;11249;52.468;13.776;2022-09-27T05:57:58;11.90;99.90
22167;DHT22;11249;52.468;13.776;2022-09-27T06:00:26;11.80;99.90
22167;DHT22;11249;52.468;13.776;2022-09-27T06:02:54;11.80;99.90
22167;DHT22;11249;52.468;13.776;2022-09-27T06:05:22;11.80;99.90
22167;DHT22;11249;52.468;13.776;2022-09-27T06:07:50;11.80;99.90
22167;DHT22;11249;52.468;13.776;2022-09-27T06:10:18;11.80;99.90
22167;DHT22;11249;52.468;13.776;2022-09-27T06:12:45;11.90;99.90
22167;DHT22;11249;52.468;13.776;2022-09-27T06:15:12;11.90;99.90
22167;DHT22;11249;52.468;13.776;2022-09-27T06:17:40;11.90;99.90
22167;DHT22;11249;52.468;13.776;2022-09-27T06:20:07;11.90;99.90
22167;DHT22;11249;52.468;13.776;2022-09-27T06:22:35;11.90;99.90
22167;DHT22;11249;52.468;13.776;2022-09-27T06:25:03;11.90;99.90
22167;DHT22;11249;52.468;13.776;2022-09-27T06:27:31;11.90;99.90
22167;DHT22;11249;52.468;13.776;2022-09-27T06:29:58;11.90;99.90
22167;DHT22;11249;52.468;13.776;2022-09-27T06:32:24;12.00;99.90
22167;DHT22;11249;52.468;13.776;2022-09-27T06:34:51;12.00;99.90
22167;DHT22;11249;52.468;13.776;2022-09-27T06:37:18;12.00;99.90
22167;DHT22;11249;52.468;13.776;2022-09-27T06:39:45;12.10;99.90
22167;DHT22;11249;52.468;13.776;2022-09-27T06:42:14;12.10;99.90
22167;DHT22;11249;52.468;13.776;2022-09-27T06:44:44;12.10;99.90
22167;DHT22;11249;52.468;13.776;2022-09-27T06:47:16;12.00;99.90
22167;DHT22;11249;52.468;13.776;2022-09-27T06:49:43;12.10;99.90
22167;DHT22;11249;52.468;13.776;2022-09-27T06:52:09;12.10;99.90
22167;DHT22;11249;52.468;13.776;2022-09-27T06:54:36;12.10;99.90
22167;DHT22;11249;52.468;13.776;2022-09-27T06:57:03;12.10;99.90
22167;DHT22;11249;52.468;13.776;2022-09-27T06:59:30;12.20;99.90
22167;DHT22;11249;52.468;13.776;2022-09-27T07:02:16;12.10;99.90
22167;DHT22;11249;52.468;13.776;2022-09-27T07:04:42;12.10;99.90
22167;DHT22;11249;52.468;13.776;2022-09-27T07:07:09;12.10;99.90
22167;DHT22;11249;52.468;13.776;2022-09-27T07:09:37;12.10;99.90
22167;DHT22;11249;52.468;13.776;2022-09-27T07:12:05;12.10;99.90
22167;DHT22;11249;52.468;13.776;2022-09-27T07:14:32;12.10;99.90
22167;DHT22;11249;52.468;13.776;2022-09-27T07:17:23;12.10;99.90
22167;DHT22;11249;52.468;13.776;2022-09-27T07:19:50;12.00;99.90
22167;DHT22;11249;52.468;13.776;2022-09-27T07:22:17;12.10;99.90
22167;DHT22;11249;52.468;13.776;2022-09-27T07:24:43;12.00;99.90
22167;DHT22;11249;52.468;13.776;2022-09-27T07:27:10;12.00;99.90
22167;DHT22;11249;52.468;13.776;2022-09-27T07:29:37;12.00;99.90
22167;DHT22;11249;52.468;13.776;2022-09-27T07:32:04;12.10;99.90
22167;DHT22;11249;52.468;13.776;2022-09-27T07:34:32;12.20;99.90
22167;DHT22;11249;52.468;13.776;2022-09-27T07:36:59;12.20;99.90
22167;DHT22;11249;52.468;13.776;2022-09-27T07:39:27;12.30;99.90
22167;DHT22;11249;52.468;13.776;2022-09-27T07:41:53;12.30;99.90
22167;DHT22;11249;52.468;13.776;2022-09-27T07:44:20;12.40;99.90
22167;DHT22;11249;52.468;13.776;2022-09-27T07:46:46;12.50;99.90
22167;DHT22;11249;52.468;13.776;2022-09-27T07:49:13;12.50;99.90
22167;DHT22;11249;52.468;13.776;2022-09-27T07:51:40;12.60;99.90
22167;DHT22;11249;52.468;13.776;2022-09-27T07:54:07;12.60;99.90
22167;DHT22;11249;52.468;13.776;2022-09-27T07:56:34;12.70;99.90
22167;DHT22;11249;52.468;13.776;2022-09-27T07:59:01;12.70;99.90
22167;DHT22;11249;52.468;13.776;2022-09-27T08:01:28;12.60;99.90
22167;DHT22;11249;52.468;13.776;2022-09-27T08:03:54;12.70;99.90
22167;DHT22;11249;52.468;13.776;2022-09-27T08:06:24;12.70;99.90
22167;DHT22;11249;52.468;13.776;2022-09-27T08:08:50;12.60;99.90
22167;DHT22;11249;52.468;13.776;2022-09-27T08:11:17;12.60;99.90
22167;DHT22;11249;52.468;13.776;2022-09-27T08:13:45;12.70;99.90
22167;DHT22;11249;52.468;13.776;2022-09-27T08:16:11;12.70;99.90
22167;DHT22;11249;52.468;13.776;2022-09-27T08:18:39;12.60;99.90
22167;DHT22;11249;52.468;13.776;2022-09-27T08:21:06;12.60;99.90
22167;DHT22;11249;52.468;13.776;2022-09-27T08:23:33;12.60;99.90
22167;DHT22;11249;52.468;13.776;2022-09-27T08:26:00;12.60;99.90
22167;DHT22;11249;52.468;13.776;2022-09-27T08:28:27;12.60;99.90
22167;DHT22;11249;52.468;13.776;2022-09-27T08:30:56;12.60;99.90
22167;DHT22;11249;52.468;13.776;2022-09-27T08:33:22;12.60;99.90
22167;DHT22;11249;52.468;13.776;2022-09-27T08:35:57;12.60;99.90
22167;DHT22;11249;52.468;13.776;2022-09-27T08:38:24;12.70;99.90
22167;DHT22;11249;52.468;13.776;2022-09-27T08:40:58;12.70;99.90
22167;DHT22;11249;52.468;13.776;2022-09-27T08:43:42;12.80;99.90
22167;DHT22;11249;52.468;13.776;2022-09-27T08:49:17;12.70;99.90
22167;DHT22;11249;52.468;13.776;2022-09-27T08:51:47;12.60;99.90
22167;DHT22;11249;52.468;13.776;2022-09-27T08:54:25;12.70;99.90
22167;DHT22;11249;52.468;13.776;2022-09-27T08:57:02;12.80;99.90
22167;DHT22;11249;52.468;13.776;2022-09-27T09:00:20;12.80;99.90
22167;DHT22;11249;52.468;13.776;2022-09-27T09:02:27;12.90;99.90
22167;DHT22;11249;52.468;13.776;2022-09-27T09:04:58;12.90;99.90
22167;DHT22;11249;52.468;13.776;2022-09-27T09:10:30;13.00;99.90
22167;DHT22;11249;52.468;13.776;2022-09-27T09:13:40;13.00;99.90
22167;DHT22;11249;52.468;13.776;2022-09-27T09:17:06;13.00;99.90
22167;DHT22;11249;52.468;13.776;2022-09-27T09:19:34;13.00;99.90
22167;DHT22;11249;52.468;13.776;2022-09-27T09:25:08;12.80;99.90
22167;DHT22;11249;52.468;13.776;2022-09-27T09:30:39;12.70;99.90
22167;DHT22;11249;52.468;13.776;2022-09-27T09:33:22;12.70;99.90
22167;DHT22;11249;52.468;13.776;2022-09-27T09:35:58;12.70;99.90
22167;DHT22;11249;52.468;13.776;2022-09-27T09:38:41;12.80;99.90
22167;DHT22;11249;52.468;13.776;2022-09-27T09:41:26;12.90;99.90
22167;DHT22;11249;52.468;13.776;2022-09-27T09:44:01;13.10;99.90
22167;DHT22;11249;52.468;13.776;2022-09-27T09:46:42;13.20;99.90
22167;DHT22;11249;52.468;13.776;2022-09-27T09:49:27;13.40;99.90
22167;DHT22;11249;52.468;13.776;2022-09-27T09:52:04;13.50;99.90
22167;DHT22;11249;52.468;13.776;2022-09-27T09:54:56;13.50;99.90
22167;DHT22;11249;52.468;13.776;2022-09-27T09:57:27;13.70;99.90
22167;DHT22;11249;52.468;13.776;2022-09-27T10:00:12;13.80;99.90
22167;DHT22;11249;52.468;13.776;2022-09-27T10:02:44;13.80;99.90
22167;DHT22;11249;52.468;13.776;2022-09-27T10:05:29;13.90;99.90
22167;DHT22;11249;52.468;13.776;2022-09-27T10:07:58;14.00;99.90
22167;DHT22;11249;52.468;13.776;2022-09-27T10:10:26;14.00;99.90
22167;DHT22;11249;52.468;13.776;2022-09-27T10:12:53;13.90;99.90
22167;DHT22;11249;52.468;13.776;2022-09-27T10:15:24;13.90;99.90
22167;DHT22;11249;52.468;13.776;2022-09-27T10:17:54;13.90;99.90
22167;DHT22;11249;52.468;13.776;2022-09-27T10:22:54;14.10;99.90
22167;DHT22;11249;52.468;13.776;2022-09-27T10:25:24;14.10;99.90
22167;DHT22;11249;52.468;13.776;2022-09-27T10:27:54;14.10;99.90
22167;DHT22;11249;52.468;13.776;2022-09-27T10:30:30;14.10;99.90
22167;DHT22;11249;52.468;13.776;2022-09-27T10:33:04;14.00;99.90
22167;DHT22;11249;52.468;13.776;2022-09-27T10:35:40;13.90;99.90
22167;DHT22;11249;52.468;13.776;2022-09-27T10:38:26;13.90;99.90
22167;DHT22;11249;52.468;13.776;2022-09-27T10:40:55;13.90;99.90
22167;DHT22;11249;52.468;13.776;2022-09-27T10:43:28;14.00;99.90
22167;DHT22;11249;52.468;13.776;2022-09-27T10:46:04;14.00;99.90
22167;DHT22;11249;52.468;13.776;2022-09-27T10:48:31;14.10;99.90
22167;DHT22;11249;52.468;13.776;2022-09-27T10:51:00;14.10;99.90
22167;DHT22;11249;52.468;13.776;2022-09-27T10:53:29;14.10;99.90
22167;DHT22;11249;52.468;13.776;2022-09-27T10:55:56;14.00;99.90
22167;DHT22;11249;52.468;13.776;2022-09-27T10:58:31;14.00;99.90
22167;DHT22;11249;52.468;13.776;2022-09-27T11:01:04;14.20;99.90
22167;DHT22;11249;52.468;13.776;2022-09-27T11:03:36;14.40;99.90
22167;DHT22;11249;52.468;13.776;2022-09-27T11:08:51;15.20;99.90
22167;DHT22;11249;52.468;13.776;2022-09-27T11:11:27;15.60;99.90
22167;DHT22;11249;52.468;13.776;2022-09-27T11:14:02;16.00;99.90
22167;DHT22;11249;52.468;13.776;2022-09-27T11:17:16;16.40;99.90
22167;DHT22;11249;52.468;13.776;2022-09-27T11:28:12;16.60;99.90
22167;DHT22;11249;52.468;13.776;2022-09-27T11:30:48;16.60;99.90
22167;DHT22;11249;52.468;13.776;2022-09-27T11:36:13;16.80;99.90
22167;DHT22;11249;52.468;13.776;2022-09-27T11:41:57;16.40;99.90
22167;DHT22;11249;52.468;13.776;2022-09-27T11:44:55;16.40;99.90
22167;DHT22;11249;52.468;13.776;2022-09-27T11:50:55;16.40;99.90
22167;DHT22;11249;52.468;13.776;2022-09-27T11:53:34;16.50;99.90
22167;DHT22;11249;52.468;13.776;2022-09-27T11:59:21;16.30;99.90
22167;DHT22;11249;52.468;13.776;2022-09-27T12:02:13;16.10;99.90
22167;DHT22;11249;52.468;13.776;2022-09-27T12:04:50;16.00;99.90
22167;DHT22;11249;52.468;13.776;2022-09-27T12:10:23;16.60;99.90
22167;DHT22;11249;52.468;13.776;2022-09-27T12:12:53;16.80;99.90
22167;DHT22;11249;52.468;13.776;2022-09-27T12:15:26;16.60;99.90
22167;DHT22;11249;52.468;13.776;2022-09-27T12:18:09;16.50;99.90
22167;DHT22;11249;52.468;13.776;2022-09-27T12:20:40;16.20;99.90
22167;DHT22;11249;52.468;13.776;2022-09-27T12:23:22;16.00;99.90
22167;DHT22;11249;52.468;13.776;2022-09-27T12:26:05;15.70;99.90
22167;DHT22;11249;52.468;13.776;2022-09-27T12:28:55;14.40;99.90
22167;DHT22;11249;52.468;13.776;2022-09-27T12:31:36;13.70;99.90
22167;DHT22;11249;52.468;13.776;2022-09-27T12:34:39;13.20;99.90
22167;DHT22;11249;52.468;13.776;2022-09-27T12:40:11;12.20;99.90
22167;DHT22;11249;52.468;13.776;2022-09-27T12:42:45;12.10;99.90
22167;DHT22;11249;52.468;13.776;2022-09-27T12:45:15;11.90;99.90
22167;DHT22;11249;52.468;13.776;2022-09-27T12:48:04;11.80;99.90
22167;DHT22;11249;52.468;13.776;2022-09-27T12:53:16;11.60;99.90
22167;DHT22;11249;52.468;13.776;2022-09-27T12:56:15;11.60;99.90
22167;DHT22;11249;52.468;13.776;2022-09-27T13:10:39;11.70;99.90
22167;DHT22;11249;52.468;13.776;2022-09-27T13:13:11;11.90;99.90
22167;DHT22;11249;52.468;13.776;2022-09-27T13:15:41;12.10;99.90
22167;DHT22;11249;52.468;13.776;2022-09-27T13:20:54;12.50;99.90
22167;DHT22;11249;52.468;13.776;2022-09-27T13:25:50;13.00;99.90
22167;DHT22;11249;52.468;13.776;2022-09-27T13:30:55;13.20;99.90
22167;DHT22;11249;52.468;13.776;2022-09-27T13:33:51;13.20;99.90
22167;DHT22;11249;52.468;13.776;2022-09-27T13:36:29;13.20;99.90
22167;DHT22;11249;52.468;13.776;2022-09-27T13:39:04;13.30;99.90
22167;DHT22;11249;52.468;13.776;2022-09-27T13:47:36;13.10;99.90
22167;DHT22;11249;52.468;13.776;2022-09-27T13:50:27;13.10;99.90
22167;DHT22;11249;52.468;13.776;2022-09-27T13:55:51;13.10;99.90
22167;DHT22;11249;52.468;13.776;2022-09-27T14:01:38;13.00;99.90
22167;DHT22;11249;52.468;13.776;2022-09-27T14:04:30;12.90;99.90
22167;DHT22;11249;52.468;13.776;2022-09-27T14:07:02;12.70;99.90
22167;DHT22;11249;52.468;13.776;2022-09-27T14:09:37;12.70;99.90
22167;DHT22;11249;52.468;13.776;2022-09-27T14:12:10;12.60;99.90
22167;DHT22;11249;52.468;13.776;2022-09-27T14:14:37;12.50;99.90
22167;DHT22;11249;52.468;13.776;2022-09-27T14:17:07;12.50;99.90
22167;DHT22;11249;52.468;13.776;2022-09-27T14:19:38;12.50;99.90
22167;DHT22;11249;52.468;13.776;2022-09-27T14:22:14;12.60;99.90
22167;DHT22;11249;52.468;13.776;2022-09-27T14:24:43;12.60;99.90
22167;DHT22;11249;52.468;13.776;2022-09-27T14:27:22;12.70;99.90
22167;DHT22;11249;52.468;13.776;2022-09-27T14:32:27;12.70;99.90
22167;DHT22;11249;52.468;13.776;2022-09-27T14:35:16;12.80;99.90
22167;DHT22;11249;52.468;13.776;2022-09-27T14:38:06;12.70;99.90
22167;DHT22;11249;52.468;13.776;2022-09-27T14:41:02;12.80;99.90
22167;DHT22;11249;52.468;13.776;2022-09-27T14:43:29;12.80;99.90
22167;DHT22;11249;52.468;13.776;2022-09-27T14:46:05;12.80;99.90
22167;DHT22;11249;52.468;13.776;2022-09-27T14:48:36;12.90;99.90
22167;DHT22;11249;52.468;13.776;2022-09-27T14:51:29;12.80;99.90
22167;DHT22;11249;52.468;13.776;2022-09-27T14:53:58;12.70;99.90
22167;DHT22;11249;52.468;13.776;2022-09-27T14:56:33;12.70;99.90
22167;DHT22;11249;52.468;13.776;2022-09-27T14:59:06;12.80;99.90
22167;DHT22;11249;52.468;13.776;2022-09-27T15:01:37;12.80;99.90
22167;DHT22;11249;52.468;13.776;2022-09-27T15:04:10;12.80;99.90
22167;DHT22;11249;52.468;13.776;2022-09-27T15:06:39;12.70;99.90
22167;DHT22;11249;52.468;13.776;2022-09-27T15:09:06;12.70;99.90
22167;DHT22;11249;52.468;13.776;2022-09-27T15:11:37;12.70;99.90
22167;DHT22;11249;52.468;13.776;2022-09-27T15:14:05;12.80;99.90
22167;DHT22;11249;52.468;13.776;2022-09-27T15:16:37;12.90;99.90
22167;DHT22;11249;52.468;13.776;2022-09-27T15:21:47;13.20;99.90
22167;DHT22;11249;52.468;13.776;2022-09-27T15:24:36;13.40;99.90
22167;DHT22;11249;52.468;13.776;2022-09-27T15:27:21;13.50;99.90
22167;DHT22;11249;52.468;13.776;2022-09-27T15:29:51;13.60;99.90
22167;DHT22;11249;52.468;13.776;2022-09-27T15:32:20;13.80;99.90
22167;DHT22;11249;52.468;13.776;2022-09-27T15:34:48;14.00;99.90
22167;DHT22;11249;52.468;13.776;2022-09-27T15:39:53;14.00;99.90
22167;DHT22;11249;52.468;13.776;2022-09-27T15:42:58;14.00;99.90
22167;DHT22;11249;52.468;13.776;2022-09-27T15:45:33;14.00;99.90
22167;DHT22;11249;52.468;13.776;2022-09-27T15:48:14;13.90;99.90
22167;DHT22;11249;52.468;13.776;2022-09-27T15:50:42;13.70;99.90
22167;DHT22;11249;52.468;13.776;2022-09-27T15:53:09;13.70;99.90
22167;DHT22;11249;52.468;13.776;2022-09-27T15:55:43;13.50;99.90
22167;DHT22;11249;52.468;13.776;2022-09-27T15:58:18;13.40;99.90
22167;DHT22;11249;52.468;13.776;2022-09-27T16:01:00;13.30;99.90
22167;DHT22;11249;52.468;13.776;2022-09-27T16:03:31;13.20;99.90
22167;DHT22;11249;52.468;13.776;2022-09-27T16:06:00;13.10;99.90
22167;DHT22;11249;52.468;13.776;2022-09-27T16:08:27;13.00;99.90
22167;DHT22;11249;52.468;13.776;2022-09-27T16:10:56;12.90;99.90
22167;DHT22;11249;52.468;13.776;2022-09-27T16:13:24;12.90;99.90
22167;DHT22;11249;52.468;13.776;2022-09-27T16:15:58;12.70;99.90
22167;DHT22;11249;52.468;13.776;2022-09-27T16:18:25;12.70;99.90
22167;DHT22;11249;52.468;13.776;2022-09-27T16:20:57;12.50;99.90
22167;DHT22;11249;52.468;13.776;2022-09-27T16:23:23;12.40;99.90
22167;DHT22;11249;52.468;13.776;2022-09-27T16:25:52;12.30;99.90
22167;DHT22;11249;52.468;13.776;2022-09-27T16:28:18;12.30;99.90
22167;DHT22;11249;52.468;13.776;2022-09-27T16:30:45;12.20;99.90
22167;DHT22;11249;52.468;13.776;2022-09-27T16:33:13;12.20;99.90
22167;DHT22;11249;52.468;13.776;2022-09-27T16:35:40;12.10;99.90
22167;DHT22;11249;52.468;13.776;2022-09-27T16:38:07;12.10;99.90
22167;DHT22;11249;52.468;13.776;2022-09-27T16:40:34;12.00;99.90
22167;DHT22;11249;52.468;13.776;2022-09-27T16:43:02;12.00;99.90
22167;DHT22;11249;52.468;13.776;2022-09-27T16:45:33;12.00;99.90
22167;DHT22;11249;52.468;13.776;2022-09-27T16:48:02;11.90;99.90
22167;DHT22;11249;52.468;13.776;2022-09-27T16:50:28;12.00;99.90
22167;DHT22;11249;52.468;13.776;2022-09-27T16:53:14;11.90;99.90
22167;DHT22;11249;52.468;13.776;2022-09-27T16:55:41;11.80;99.90
22167;DHT22;11249;52.468;13.776;2022-09-27T16:58:07;11.80;99.90
22167;DHT22;11249;52.468;13.776;2022-09-27T17:00:34;11.70;99.90
22167;DHT22;11249;52.468;13.776;2022-09-27T17:03:01;11.70;99.90
22167;DHT22;11249;52.468;13.776;2022-09-27T17:05:28;11.70;99.90
22167;DHT22;11249;52.468;13.776;2022-09-27T17:07:54;11.60;99.90
22167;DHT22;11249;52.468;13.776;2022-09-27T17:10:21;11.60;99.90
22167;DHT22;11249;52.468;13.776;2022-09-27T17:12:49;11.50;99.90
22167;DHT22;11249;52.468;13.776;2022-09-27T17:15:16;11.50;99.90
22167;DHT22;11249;52.468;13.776;2022-09-27T17:17:42;11.40;99.90
22167;DHT22;11249;52.468;13.776;2022-09-27T17:20:10;11.40;99.90
22167;DHT22;11249;52.468;13.776;2022-09-27T17:22:37;11.40;99.90
22167;DHT22;11249;52.468;13.776;2022-09-27T17:25:04;11.30;99.90
22167;DHT22;11249;52.468;13.776;2022-09-27T17:27:31;11.30;99.90
22167;DHT22;11249;52.468;13.776;2022-09-27T17:29:58;11.20;99.90
22167;DHT22;11249;52.468;13.776;2022-09-27T17:32:24;11.20;99.90
22167;DHT22;11249;52.468;13.776;2022-09-27T17:34:51;11.10;99.90
22167;DHT22;11249;52.468;13.776;2022-09-27T17:37:18;11.00;99.90